sensor_id;sensor_type;location;lat;lon;timestamp;temperature;humidity
13898;DHT22;7019;50.766;4.474;2023-07-31T00:02:00;16.20;99.90
13898;DHT22;7019;50.766;4.474;2023-07-31T00:04:27;16.20;99.90
13898;DHT22;7019;50.766;4.474;2023-07-31T00:06:54;16.30;99.90
13898;DHT22;7019;50.766;4.474;2023-07-31T00:09:21;16.30;99.90
13898;DHT22;7019;50.766;4.474;2023-07-31T00:11:48;16.30;99.90
13898;DHT22;7019;50.766;4.474;2023-07-31T00:14:16;16.30;99.90
13898;DHT22;7019;50.766;4.474;2023-07-31T00:16:43;16.30;99.90
13898;DHT22;7019;50.766;4.474;2023-07-31T00:19:10;16.30;99.90
13898;DHT22;7019;50.766;4.474;2023-07-31T00:21:37;16.30;99.90
13898;DHT22;7019;50.766;4.474;2023-07-31T00:24:05;16.40;99.90
13898;DHT22;7019;50.766;4.474;2023-07-31T00:26:32;16.40;99.90
13898;DHT22;7019;50.766;4.474;2023-07-31T00:28:59;16.40;99.90
13898;DHT22;7019;50.766;4.474;2023-07-31T00:31:28;16.40;99.90
13898;DHT22;7019;50.766;4.474;2023-07-31T00:33:55;16.40;99.90
13898;DHT22;7019;50.766;4.474;2023-07-31T00:36:22;16.50;99.90
13898;DHT22;7019;50.766;4.474;2023-07-31T00:38:49;16.50;99.90
13898;DHT22;7019;50.766;4.474;2023-07-31T00:41:16;16.50;99.90
13898;DHT22;7019;50.766;4.474;2023-07-31T00:43:43;16.50;99.90
13898;DHT22;7019;50.766;4.474;2023-07-31T00:46:10;16.50;99.90
13898;DHT22;7019;50.766;4.474;2023-07-31T00:48:39;16.50;99.90
13898;DHT22;7019;50.766;4.474;2023-07-31T00:51:07;16.50;99.90
13898;DHT22;7019;50.766;4.474;2023-07-31T00:53:35;16.50;99.90
13898;DHT22;7019;50.766;4.474;2023-07-31T00:56:03;16.50;99.90
13898;DHT22;7019;50.766;4.474;2023-07-31T00:58:31;16.40;99.90
13898;DHT22;7019;50.766;4.474;2023-07-31T01:00:58;16.40;99.90
13898;DHT22;7019;50.766;4.474;2023-07-31T01:03:25;16.40;99.90
13898;DHT22;7019;50.766;4.474;2023-07-31T01:06:02;16.40;99.90
13898;DHT22;7019;50.766;4.474;2023-07-31T01:08:36;16.40;99.90
13898;DHT22;7019;50.766;4.474;2023-07-31T01:11:16;16.40;99.90
13898;DHT22;7019;50.766;4.474;2023-07-31T01:13:44;16.40;99.90
13898;DHT22;7019;50.766;4.474;2023-07-31T01:16:12;16.40;99.90
13898;DHT22;7019;50.766;4.474;2023-07-31T01:18:39;16.40;99.90
13898;DHT22;7019;50.766;4.474;2023-07-31T01:21:18;16.40;99.90
13898;DHT22;7019;50.766;4.474;2023-07-31T01:24:10;16.40;99.90
13898;DHT22;7019;50.766;4.474;2023-07-31T01:26:47;16.40;99.90
13898;DHT22;7019;50.766;4.474;2023-07-31T01:29:20;16.40;99.90
13898;DHT22;7019;50.766;4.474;2023-07-31T01:31:53;16.40;99.90
13898;DHT22;7019;50.766;4.474;2023-07-31T01:34:22;16.30;99.90
13898;DHT22;7019;50.766;4.474;2023-07-31T01:36:50;16.40;99.90
13898;DHT22;7019;50.766;4.474;2023-07-31T01:39:17;16.30;99.90
13898;DHT22;7019;50.766;4.474;2023-07-31T01:41:48;16.30;99.90
13898;DHT22;7019;50.766;4.474;2023-07-31T01:44:15;16.30;99.90
13898;DHT22;7019;50.766;4.474;2023-07-31T01:46:42;16.30;99.90
13898;DHT22;7019;50.766;4.474;2023-07-31T01:49:10;16.40;99.90
13898;DHT22;7019;50.766;4.474;2023-07-31T01:51:37;16.40;99.90
13898;DHT22;7019;50.766;4.474;2023-07-31T01:54:04;16.40;99.90
13898;DHT22;7019;50.766;4.474;2023-07-31T01:56:31;16.40;99.90
13898;DHT22;7019;50.766;4.474;2023-07-31T01:58:59;16.30;99.90
13898;DHT22;7019;50.766;4.474;2023-07-31T02:01:26;16.40;99.90
13898;DHT22;7019;50.766;4.474;2023-07-31T02:03:54;16.40;99.90
13898;DHT22;7019;50.766;4.474;2023-07-31T02:06:21;16.40;99.90
13898;DHT22;7019;50.766;4.474;2023-07-31T02:08:48;16.40;99.90
13898;DHT22;7019;50.766;4.474;2023-07-31T02:11:15;16.40;99.90
13898;DHT22;7019;50.766;4.474;2023-07-31T02:13:42;16.50;99.90
13898;DHT22;7019;50.766;4.474;2023-07-31T02:16:11;16.40;99.90
13898;DHT22;7019;50.766;4.474;2023-07-31T02:18:38;16.40;99.90
13898;DHT22;7019;50.766;4.474;2023-07-31T02:21:05;16.50;99.90
13898;DHT22;7019;50.766;4.474;2023-07-31T02:23:32;16.50;99.90
13898;DHT22;7019;50.766;4.474;2023-07-31T02:25:59;16.50;99.90
13898;DHT22;7019;50.766;4.474;2023-07-31T02:28:26;16.40;99.90
13898;DHT22;7019;50.766;4.474;2023-07-31T02:30:53;16.40;99.90
13898;DHT22;7019;50.766;4.474;2023-07-31T02:33:22;16.40;99.90
13898;DHT22;7019;50.766;4.474;2023-07-31T02:35:49;16.40;99.90
13898;DHT22;7019;50.766;4.474;2023-07-31T02:38:16;16.40;99.90
13898;DHT22;7019;50.766;4.474;2023-07-31T02:40:43;16.40;99.90
13898;DHT22;7019;50.766;4.474;2023-07-31T02:43:10;16.40;99.90
13898;DHT22;7019;50.766;4.474;2023-07-31T02:45:37;16.40;99.90
13898;DHT22;7019;50.766;4.474;2023-07-31T02:48:04;16.50;99.90
13898;DHT22;7019;50.766;4.474;2023-07-31T02:50:33;16.50;99.90
13898;DHT22;7019;50.766;4.474;2023-07-31T02:53:00;16.50;99.90
13898;DHT22;7019;50.766;4.474;2023-07-31T02:55:27;16.50;99.90
13898;DHT22;7019;50.766;4.474;2023-07-31T02:57:54;16.40;99.90
13898;DHT22;7019;50.766;4.474;2023-07-31T03:00:21;16.40;99.90
13898;DHT22;7019;50.766;4.474;2023-07-31T03:02:48;16.40;99.90
13898;DHT22;7019;50.766;4.474;2023-07-31T03:05:15;16.40;99.90
13898;DHT22;7019;50.766;4.474;2023-07-31T03:07:44;16.40;99.90
13898;DHT22;7019;50.766;4.474;2023-07-31T03:10:11;16.50;99.90
13898;DHT22;7019;50.766;4.474;2023-07-31T03:12:38;16.50;99.90
13898;DHT22;7019;50.766;4.474;2023-07-31T03:15:06;16.40;99.90
13898;DHT22;7019;50.766;4.474;2023-07-31T03:17:33;16.40;99.90
13898;DHT22;7019;50.766;4.474;2023-07-31T03:20:00;16.40;99.90
13898;DHT22;7019;50.766;4.474;2023-07-31T03:22:27;16.40;99.90
13898;DHT22;7019;50.766;4.474;2023-07-31T03:24:55;16.40;99.90
13898;DHT22;7019;50.766;4.474;2023-07-31T03:27:22;16.40;99.90
13898;DHT22;7019;50.766;4.474;2023-07-31T03:29:49;16.50;99.90
13898;DHT22;7019;50.766;4.474;2023-07-31T03:32:17;16.50;99.90
13898;DHT22;7019;50.766;4.474;2023-07-31T03:34:44;16.50;99.90
13898;DHT22;7019;50.766;4.474;2023-07-31T03:37:11;16.50;99.90
13898;DHT22;7019;50.766;4.474;2023-07-31T03:39:38;16.50;99.90
13898;DHT22;7019;50.766;4.474;2023-07-31T03:42:07;16.50;99.90
13898;DHT22;7019;50.766;4.474;2023-07-31T03:44:34;16.50;99.90
13898;DHT22;7019;50.766;4.474;2023-07-31T03:47:01;16.50;99.90
13898;DHT22;7019;50.766;4.474;2023-07-31T03:49:28;16.50;99.90
13898;DHT22;7019;50.766;4.474;2023-07-31T03:51:55;16.50;99.90
13898;DHT22;7019;50.766;4.474;2023-07-31T03:54:22;16.50;99.90
13898;DHT22;7019;50.766;4.474;2023-07-31T03:56:50;16.50;99.90
13898;DHT22;7019;50.766;4.474;2023-07-31T03:59:18;16.50;99.90
13898;DHT22;7019;50.766;4.474;2023-07-31T04:01:45;16.40;99.90
13898;DHT22;7019;50.766;4.474;2023-07-31T04:04:12;16.40;99.90
13898;DHT22;7019;50.766;4.474;2023-07-31T04:06:39;16.50;99.90
13898;DHT22;7019;50.766;4.474;2023-07-31T04:09:06;16.40;99.90
13898;DHT22;7019;50.766;4.474;2023-07-31T04:11:33;16.40;99.90
13898;DHT22;7019;50.766;4.474;2023-07-31T04:14:00;16.40;99.90
13898;DHT22;7019;50.766;4.474;2023-07-31T04:16:29;16.40;99.90
13898;DHT22;7019;50.766;4.474;2023-07-31T04:18:55;16.40;99.90
13898;DHT22;7019;50.766;4.474;2023-07-31T04:21:23;16.40;99.90
13898;DHT22;7019;50.766;4.474;2023-07-31T04:23:50;16.40;99.90
13898;DHT22;7019;50.766;4.474;2023-07-31T04:26:21;16.40;99.90
13898;DHT22;7019;50.766;4.474;2023-07-31T04:28:48;16.40;99.90
13898;DHT22;7019;50.766;4.474;2023-07-31T04:31:15;16.40;99.90
13898;DHT22;7019;50.766;4.474;2023-07-31T04:33:43;16.30;99.90
13898;DHT22;7019;50.766;4.474;2023-07-31T04:36:10;16.30;99.90
13898;DHT22;7019;50.766;4.474;2023-07-31T04:38:38;16.30;99.90
13898;DHT22;7019;50.766;4.474;2023-07-31T04:41:06;16.40;99.90
13898;DHT22;7019;50.766;4.474;2023-07-31T04:43:33;16.40;99.90
13898;DHT22;7019;50.766;4.474;2023-07-31T04:46:00;16.40;99.90
13898;DHT22;7019;50.766;4.474;2023-07-31T04:48:27;16.40;99.90
13898;DHT22;7019;50.766;4.474;2023-07-31T04:50:56;16.40;99.90
13898;DHT22;7019;50.766;4.474;2023-07-31T04:53:23;16.40;99.90
13898;DHT22;7019;50.766;4.474;2023-07-31T04:55:50;16.40;99.90
13898;DHT22;7019;50.766;4.474;2023-07-31T04:58:17;16.40;99.90
13898;DHT22;7019;50.766;4.474;2023-07-31T05:00:45;16.40;99.90
13898;DHT22;7019;50.766;4.474;2023-07-31T05:03:12;16.40;99.90
13898;DHT22;7019;50.766;4.474;2023-07-31T05:05:39;16.40;99.90
13898;DHT22;7019;50.766;4.474;2023-07-31T05:08:07;16.40;99.90
13898;DHT22;7019;50.766;4.474;2023-07-31T05:10:34;16.40;99.90
13898;DHT22;7019;50.766;4.474;2023-07-31T05:13:01;16.40;99.90
13898;DHT22;7019;50.766;4.474;2023-07-31T05:15:28;16.40;99.90
13898;DHT22;7019;50.766;4.474;2023-07-31T05:17:55;16.30;99.90
13898;DHT22;7019;50.766;4.474;2023-07-31T05:20:22;16.30;99.90
13898;DHT22;7019;50.766;4.474;2023-07-31T05:22:50;16.20;99.90
13898;DHT22;7019;50.766;4.474;2023-07-31T05:25:19;16.20;99.90
13898;DHT22;7019;50.766;4.474;2023-07-31T05:27:46;16.20;99.90
13898;DHT22;7019;50.766;4.474;2023-07-31T05:30:13;16.20;99.90
13898;DHT22;7019;50.766;4.474;2023-07-31T05:32:40;16.20;99.90
13898;DHT22;7019;50.766;4.474;2023-07-31T05:35:07;16.20;99.90
13898;DHT22;7019;50.766;4.474;2023-07-31T05:37:34;16.20;99.90
13898;DHT22;7019;50.766;4.474;2023-07-31T05:40:02;16.20;99.90
13898;DHT22;7019;50.766;4.474;2023-07-31T05:42:30;16.20;99.90
13898;DHT22;7019;50.766;4.474;2023-07-31T05:44:57;16.10;99.90
13898;DHT22;7019;50.766;4.474;2023-07-31T05:47:24;16.10;99.90
13898;DHT22;7019;50.766;4.474;2023-07-31T05:49:52;16.10;99.90
13898;DHT22;7019;50.766;4.474;2023-07-31T05:52:19;16.10;99.90
13898;DHT22;7019;50.766;4.474;2023-07-31T05:54:46;16.10;99.90
13898;DHT22;7019;50.766;4.474;2023-07-31T05:57:13;16.10;99.90
13898;DHT22;7019;50.766;4.474;2023-07-31T05:59:41;16.10;99.90
13898;DHT22;7019;50.766;4.474;2023-07-31T06:02:09;16.00;99.90
13898;DHT22;7019;50.766;4.474;2023-07-31T06:04:36;16.00;99.90
13898;DHT22;7019;50.766;4.474;2023-07-31T06:07:03;16.00;99.90
13898;DHT22;7019;50.766;4.474;2023-07-31T06:09:30;16.00;99.90
13898;DHT22;7019;50.766;4.474;2023-07-31T06:11:58;16.00;99.90
13898;DHT22;7019;50.766;4.474;2023-07-31T06:14:25;16.00;99.90
13898;DHT22;7019;50.766;4.474;2023-07-31T06:16:53;16.00;99.90
13898;DHT22;7019;50.766;4.474;2023-07-31T06:19:20;16.00;99.90
13898;DHT22;7019;50.766;4.474;2023-07-31T06:21:48;16.00;99.90
13898;DHT22;7019;50.766;4.474;2023-07-31T06:24:15;16.00;99.90
13898;DHT22;7019;50.766;4.474;2023-07-31T06:26:44;16.10;99.90
13898;DHT22;7019;50.766;4.474;2023-07-31T06:29:11;16.10;99.90
13898;DHT22;7019;50.766;4.474;2023-07-31T06:31:38;16.10;99.90
13898;DHT22;7019;50.766;4.474;2023-07-31T06:34:08;16.20;99.90
13898;DHT22;7019;50.766;4.474;2023-07-31T06:36:35;16.20;99.90
13898;DHT22;7019;50.766;4.474;2023-07-31T06:39:02;16.20;99.90
13898;DHT22;7019;50.766;4.474;2023-07-31T06:41:29;16.20;99.90
13898;DHT22;7019;50.766;4.474;2023-07-31T06:43:56;16.20;99.90
13898;DHT22;7019;50.766;4.474;2023-07-31T06:46:23;16.20;99.90
13898;DHT22;7019;50.766;4.474;2023-07-31T06:48:50;16.20;99.90
13898;DHT22;7019;50.766;4.474;2023-07-31T06:51:19;16.20;99.90
13898;DHT22;7019;50.766;4.474;2023-07-31T06:53:46;16.20;99.90
13898;DHT22;7019;50.766;4.474;2023-07-31T06:56:13;16.20;99.90
13898;DHT22;7019;50.766;4.474;2023-07-31T06:58:40;16.30;99.90
13898;DHT22;7019;50.766;4.474;2023-07-31T07:01:07;16.30;99.90
13898;DHT22;7019;50.766;4.474;2023-07-31T07:03:34;16.50;99.90
13898;DHT22;7019;50.766;4.474;2023-07-31T07:06:01;16.50;99.90
13898;DHT22;7019;50.766;4.474;2023-07-31T07:08:29;16.60;99.90
13898;DHT22;7019;50.766;4.474;2023-07-31T07:10:56;16.60;99.90
13898;DHT22;7019;50.766;4.474;2023-07-31T07:13:23;16.70;99.90
13898;DHT22;7019;50.766;4.474;2023-07-31T07:15:51;16.80;99.90
13898;DHT22;7019;50.766;4.474;2023-07-31T07:18:18;16.90;99.90
13898;DHT22;7019;50.766;4.474;2023-07-31T07:20:47;16.90;99.90
13898;DHT22;7019;50.766;4.474;2023-07-31T07:23:14;17.00;99.90
13898;DHT22;7019;50.766;4.474;2023-07-31T07:25:43;17.00;99.90
13898;DHT22;7019;50.766;4.474;2023-07-31T07:28:10;17.10;99.90
13898;DHT22;7019;50.766;4.474;2023-07-31T07:30:38;17.10;99.90
13898;DHT22;7019;50.766;4.474;2023-07-31T07:33:05;17.10;99.90
13898;DHT22;7019;50.766;4.474;2023-07-31T07:35:33;17.10;99.90
13898;DHT22;7019;50.766;4.474;2023-07-31T07:38:01;17.20;99.90
13898;DHT22;7019;50.766;4.474;2023-07-31T07:40:28;17.20;99.90
13898;DHT22;7019;50.766;4.474;2023-07-31T07:42:56;17.20;99.90
13898;DHT22;7019;50.766;4.474;2023-07-31T07:45:25;17.20;99.90
13898;DHT22;7019;50.766;4.474;2023-07-31T07:47:52;17.20;99.90
13898;DHT22;7019;50.766;4.474;2023-07-31T07:50:20;17.20;99.90
13898;DHT22;7019;50.766;4.474;2023-07-31T07:52:47;17.20;99.90
13898;DHT22;7019;50.766;4.474;2023-07-31T07:55:14;17.20;99.90
13898;DHT22;7019;50.766;4.474;2023-07-31T07:57:41;17.20;99.90
13898;DHT22;7019;50.766;4.474;2023-07-31T08:00:13;17.20;99.90
13898;DHT22;7019;50.766;4.474;2023-07-31T08:02:40;17.30;99.90
13898;DHT22;7019;50.766;4.474;2023-07-31T08:05:08;17.30;99.90
13898;DHT22;7019;50.766;4.474;2023-07-31T08:07:35;17.30;99.90
13898;DHT22;7019;50.766;4.474;2023-07-31T08:10:02;17.40;99.90
13898;DHT22;7019;50.766;4.474;2023-07-31T08:12:30;17.40;99.90
13898;DHT22;7019;50.766;4.474;2023-07-31T08:14:57;17.50;99.90
13898;DHT22;7019;50.766;4.474;2023-07-31T08:17:27;17.50;99.90
13898;DHT22;7019;50.766;4.474;2023-07-31T08:19:54;17.30;99.90
13898;DHT22;7019;50.766;4.474;2023-07-31T08:22:23;17.30;99.90
13898;DHT22;7019;50.766;4.474;2023-07-31T08:24:51;17.20;99.90
13898;DHT22;7019;50.766;4.474;2023-07-31T08:27:18;17.30;99.90
13898;DHT22;7019;50.766;4.474;2023-07-31T08:29:45;17.30;99.90
13898;DHT22;7019;50.766;4.474;2023-07-31T08:32:12;17.30;99.90
13898;DHT22;7019;50.766;4.474;2023-07-31T08:34:40;17.40;99.90
13898;DHT22;7019;50.766;4.474;2023-07-31T08:37:07;17.40;99.90
13898;DHT22;7019;50.766;4.474;2023-07-31T08:39:35;17.40;99.90
13898;DHT22;7019;50.766;4.474;2023-07-31T08:42:07;17.30;99.90
13898;DHT22;7019;50.766;4.474;2023-07-31T08:44:35;17.30;99.90
13898;DHT22;7019;50.766;4.474;2023-07-31T08:47:03;17.20;99.90
13898;DHT22;7019;50.766;4.474;2023-07-31T08:49:32;17.20;99.90
13898;DHT22;7019;50.766;4.474;2023-07-31T08:52:00;17.20;99.90
13898;DHT22;7019;50.766;4.474;2023-07-31T08:54:29;17.10;99.90
13898;DHT22;7019;50.766;4.474;2023-07-31T08:56:57;17.20;99.90
13898;DHT22;7019;50.766;4.474;2023-07-31T08:59:26;17.20;99.90
13898;DHT22;7019;50.766;4.474;2023-07-31T09:01:56;17.20;99.90
13898;DHT22;7019;50.766;4.474;2023-07-31T09:04:25;17.20;99.90
13898;DHT22;7019;50.766;4.474;2023-07-31T09:06:56;17.20;99.90
13898;DHT22;7019;50.766;4.474;2023-07-31T09:09:25;17.20;99.90
13898;DHT22;7019;50.766;4.474;2023-07-31T09:11:53;17.20;99.90
13898;DHT22;7019;50.766;4.474;2023-07-31T09:14:20;17.20;99.90
13898;DHT22;7019;50.766;4.474;2023-07-31T09:16:54;17.30;99.90
13898;DHT22;7019;50.766;4.474;2023-07-31T09:19:29;17.30;99.90
13898;DHT22;7019;50.766;4.474;2023-07-31T09:21:56;17.40;99.90
13898;DHT22;7019;50.766;4.474;2023-07-31T09:24:28;17.40;99.90
13898;DHT22;7019;50.766;4.474;2023-07-31T09:26:57;17.50;99.90
13898;DHT22;7019;50.766;4.474;2023-07-31T09:29:26;17.60;99.90
13898;DHT22;7019;50.766;4.474;2023-07-31T09:31:55;17.80;99.90
13898;DHT22;7019;50.766;4.474;2023-07-31T09:34:29;17.90;99.90
13898;DHT22;7019;50.766;4.474;2023-07-31T09:37:00;18.00;99.90
13898;DHT22;7019;50.766;4.474;2023-07-31T09:39:29;18.10;99.90
13898;DHT22;7019;50.766;4.474;2023-07-31T09:41:57;18.30;99.90
13898;DHT22;7019;50.766;4.474;2023-07-31T09:44:37;18.20;99.90
13898;DHT22;7019;50.766;4.474;2023-07-31T09:47:06;18.20;99.90
13898;DHT22;7019;50.766;4.474;2023-07-31T09:49:33;18.10;99.90
13898;DHT22;7019;50.766;4.474;2023-07-31T09:52:00;18.10;99.90
13898;DHT22;7019;50.766;4.474;2023-07-31T09:54:29;18.20;99.90
13898;DHT22;7019;50.766;4.474;2023-07-31T09:56:57;18.20;99.90
13898;DHT22;7019;50.766;4.474;2023-07-31T09:59:25;18.20;99.90
13898;DHT22;7019;50.766;4.474;2023-07-31T10:01:53;18.10;99.90
13898;DHT22;7019;50.766;4.474;2023-07-31T10:04:25;18.20;99.90
13898;DHT22;7019;50.766;4.474;2023-07-31T10:06:54;18.30;99.90
13898;DHT22;7019;50.766;4.474;2023-07-31T10:09:23;18.30;99.90
13898;DHT22;7019;50.766;4.474;2023-07-31T10:11:58;18.20;99.90
13898;DHT22;7019;50.766;4.474;2023-07-31T10:14:26;18.20;99.90
13898;DHT22;7019;50.766;4.474;2023-07-31T10:16:55;18.30;99.90
13898;DHT22;7019;50.766;4.474;2023-07-31T10:19:23;18.40;99.90
13898;DHT22;7019;50.766;4.474;2023-07-31T10:21:50;18.50;99.90
13898;DHT22;7019;50.766;4.474;2023-07-31T10:24:18;18.60;99.90
13898;DHT22;7019;50.766;4.474;2023-07-31T10:26:48;18.70;99.90
13898;DHT22;7019;50.766;4.474;2023-07-31T10:29:17;18.90;99.90
13898;DHT22;7019;50.766;4.474;2023-07-31T10:31:47;19.10;99.90
13898;DHT22;7019;50.766;4.474;2023-07-31T10:34:15;19.40;99.90
13898;DHT22;7019;50.766;4.474;2023-07-31T10:36:42;19.50;99.90
13898;DHT22;7019;50.766;4.474;2023-07-31T10:39:33;19.50;99.90
13898;DHT22;7019;50.766;4.474;2023-07-31T10:42:10;19.50;99.90
13898;DHT22;7019;50.766;4.474;2023-07-31T10:44:43;19.50;99.90
13898;DHT22;7019;50.766;4.474;2023-07-31T10:47:10;19.40;99.90
13898;DHT22;7019;50.766;4.474;2023-07-31T10:49:40;19.20;99.90
13898;DHT22;7019;50.766;4.474;2023-07-31T10:52:13;19.00;99.90
13898;DHT22;7019;50.766;4.474;2023-07-31T10:54:40;19.00;99.90
13898;DHT22;7019;50.766;4.474;2023-07-31T10:57:19;18.90;99.90
13898;DHT22;7019;50.766;4.474;2023-07-31T10:59:48;19.10;99.90
13898;DHT22;7019;50.766;4.474;2023-07-31T11:02:26;19.10;99.90
13898;DHT22;7019;50.766;4.474;2023-07-31T11:05:17;19.30;99.90
13898;DHT22;7019;50.766;4.474;2023-07-31T11:07:48;19.40;99.90
13898;DHT22;7019;50.766;4.474;2023-07-31T11:10:17;19.30;99.90
13898;DHT22;7019;50.766;4.474;2023-07-31T11:12:45;19.20;99.90
13898;DHT22;7019;50.766;4.474;2023-07-31T11:15:14;19.20;99.90
13898;DHT22;7019;50.766;4.474;2023-07-31T11:17:41;19.20;99.90
13898;DHT22;7019;50.766;4.474;2023-07-31T11:20:09;19.10;99.90
13898;DHT22;7019;50.766;4.474;2023-07-31T11:22:36;19.10;99.90
13898;DHT22;7019;50.766;4.474;2023-07-31T11:25:04;19.10;99.90
13898;DHT22;7019;50.766;4.474;2023-07-31T11:27:38;19.10;99.90
13898;DHT22;7019;50.766;4.474;2023-07-31T11:30:06;19.10;99.90
13898;DHT22;7019;50.766;4.474;2023-07-31T11:32:36;19.10;99.90
13898;DHT22;7019;50.766;4.474;2023-07-31T11:35:04;19.10;99.90
13898;DHT22;7019;50.766;4.474;2023-07-31T11:37:40;19.20;99.90
13898;DHT22;7019;50.766;4.474;2023-07-31T11:40:08;19.10;99.90
13898;DHT22;7019;50.766;4.474;2023-07-31T11:42:36;19.20;99.90
13898;DHT22;7019;50.766;4.474;2023-07-31T11:45:04;19.30;99.90
13898;DHT22;7019;50.766;4.474;2023-07-31T11:47:34;19.40;99.90
13898;DHT22;7019;50.766;4.474;2023-07-31T11:50:02;19.30;99.90
13898;DHT22;7019;50.766;4.474;2023-07-31T11:52:31;19.30;99.90
13898;DHT22;7019;50.766;4.474;2023-07-31T11:55:00;19.30;99.90
13898;DHT22;7019;50.766;4.474;2023-07-31T11:57:28;19.30;99.90
13898;DHT22;7019;50.766;4.474;2023-07-31T11:59:57;19.30;99.90
13898;DHT22;7019;50.766;4.474;2023-07-31T12:02:25;19.40;99.90
13898;DHT22;7019;50.766;4.474;2023-07-31T12:04:53;19.50;99.90
13898;DHT22;7019;50.766;4.474;2023-07-31T12:07:20;19.70;99.90
13898;DHT22;7019;50.766;4.474;2023-07-31T12:09:54;19.80;99.90
13898;DHT22;7019;50.766;4.474;2023-07-31T12:12:22;19.90;99.90
13898;DHT22;7019;50.766;4.474;2023-07-31T12:14:49;20.00;99.90
13898;DHT22;7019;50.766;4.474;2023-07-31T12:17:19;20.00;99.90
13898;DHT22;7019;50.766;4.474;2023-07-31T12:19:48;20.20;99.90
13898;DHT22;7019;50.766;4.474;2023-07-31T12:22:17;20.10;99.90
13898;DHT22;7019;50.766;4.474;2023-07-31T12:24:44;20.10;99.90
13898;DHT22;7019;50.766;4.474;2023-07-31T12:27:12;20.00;99.90
13898;DHT22;7019;50.766;4.474;2023-07-31T12:29:41;20.00;99.90
13898;DHT22;7019;50.766;4.474;2023-07-31T12:32:21;20.00;99.90
13898;DHT22;7019;50.766;4.474;2023-07-31T12:34:49;20.00;99.90
13898;DHT22;7019;50.766;4.474;2023-07-31T12:37:18;19.90;99.90
13898;DHT22;7019;50.766;4.474;2023-07-31T12:39:45;19.90;99.90
13898;DHT22;7019;50.766;4.474;2023-07-31T12:42:12;19.80;99.90
13898;DHT22;7019;50.766;4.474;2023-07-31T12:44:39;19.70;99.90
13898;DHT22;7019;50.766;4.474;2023-07-31T12:47:06;19.60;99.90
13898;DHT22;7019;50.766;4.474;2023-07-31T12:49:33;19.60;99.90
13898;DHT22;7019;50.766;4.474;2023-07-31T12:52:00;19.50;99.90
13898;DHT22;7019;50.766;4.474;2023-07-31T12:54:28;19.60;99.90
13898;DHT22;7019;50.766;4.474;2023-07-31T12:56:55;19.80;99.90
13898;DHT22;7019;50.766;4.474;2023-07-31T12:59:22;20.20;99.90
13898;DHT22;7019;50.766;4.474;2023-07-31T13:01:49;20.40;99.90
13898;DHT22;7019;50.766;4.474;2023-07-31T13:04:16;20.40;99.90
13898;DHT22;7019;50.766;4.474;2023-07-31T13:06:43;20.30;99.90
13898;DHT22;7019;50.766;4.474;2023-07-31T13:09:11;20.10;99.90
13898;DHT22;7019;50.766;4.474;2023-07-31T13:11:39;20.00;99.90
13898;DHT22;7019;50.766;4.474;2023-07-31T13:14:06;19.90;99.90
13898;DHT22;7019;50.766;4.474;2023-07-31T13:16:33;19.80;99.90
13898;DHT22;7019;50.766;4.474;2023-07-31T13:19:00;19.70;99.90
13898;DHT22;7019;50.766;4.474;2023-07-31T13:21:27;19.60;99.90
13898;DHT22;7019;50.766;4.474;2023-07-31T13:23:54;19.40;99.90
13898;DHT22;7019;50.766;4.474;2023-07-31T13:26:23;19.10;99.90
13898;DHT22;7019;50.766;4.474;2023-07-31T13:28:52;18.90;99.90
13898;DHT22;7019;50.766;4.474;2023-07-31T13:31:19;18.80;99.90
13898;DHT22;7019;50.766;4.474;2023-07-31T13:33:46;18.70;99.90
13898;DHT22;7019;50.766;4.474;2023-07-31T13:36:13;18.60;99.90
13898;DHT22;7019;50.766;4.474;2023-07-31T13:38:40;18.60;99.90
13898;DHT22;7019;50.766;4.474;2023-07-31T13:41:07;18.50;99.90
13898;DHT22;7019;50.766;4.474;2023-07-31T13:43:34;18.50;99.90
13898;DHT22;7019;50.766;4.474;2023-07-31T13:46:03;18.50;99.90
13898;DHT22;7019;50.766;4.474;2023-07-31T13:48:33;18.40;99.90
13898;DHT22;7019;50.766;4.474;2023-07-31T13:51:00;18.40;99.90
13898;DHT22;7019;50.766;4.474;2023-07-31T13:53:27;18.40;99.90
13898;DHT22;7019;50.766;4.474;2023-07-31T13:55:54;18.40;99.90
13898;DHT22;7019;50.766;4.474;2023-07-31T13:58:21;18.30;99.90
13898;DHT22;7019;50.766;4.474;2023-07-31T14:00:49;18.20;99.90
13898;DHT22;7019;50.766;4.474;2023-07-31T14:03:17;18.20;99.90
13898;DHT22;7019;50.766;4.474;2023-07-31T14:05:44;18.10;99.90
13898;DHT22;7019;50.766;4.474;2023-07-31T14:08:11;18.00;99.90
13898;DHT22;7019;50.766;4.474;2023-07-31T14:10:38;18.00;99.90
13898;DHT22;7019;50.766;4.474;2023-07-31T14:13:05;18.10;99.90
13898;DHT22;7019;50.766;4.474;2023-07-31T14:15:32;18.10;99.90
13898;DHT22;7019;50.766;4.474;2023-07-31T14:18:01;18.00;99.90
13898;DHT22;7019;50.766;4.474;2023-07-31T14:20:30;18.00;99.90
13898;DHT22;7019;50.766;4.474;2023-07-31T14:22:57;18.00;99.90
13898;DHT22;7019;50.766;4.474;2023-07-31T14:25:24;18.10;99.90
13898;DHT22;7019;50.766;4.474;2023-07-31T14:27:51;18.10;99.90
13898;DHT22;7019;50.766;4.474;2023-07-31T14:30:18;18.20;99.90
13898;DHT22;7019;50.766;4.474;2023-07-31T14:32:46;18.20;99.90
13898;DHT22;7019;50.766;4.474;2023-07-31T14:35:13;18.30;99.90
13898;DHT22;7019;50.766;4.474;2023-07-31T14:37:43;18.30;99.90
13898;DHT22;7019;50.766;4.474;2023-07-31T14:40:11;18.30;99.90
13898;DHT22;7019;50.766;4.474;2023-07-31T14:42:39;18.40;99.90
13898;DHT22;7019;50.766;4.474;2023-07-31T14:45:07;18.30;99.90
13898;DHT22;7019;50.766;4.474;2023-07-31T14:47:35;18.30;99.90
13898;DHT22;7019;50.766;4.474;2023-07-31T14:50:03;18.30;99.90
13898;DHT22;7019;50.766;4.474;2023-07-31T14:52:30;18.30;99.90
13898;DHT22;7019;50.766;4.474;2023-07-31T14:54:59;18.20;99.90
13898;DHT22;7019;50.766;4.474;2023-07-31T14:57:26;18.20;99.90
13898;DHT22;7019;50.766;4.474;2023-07-31T14:59:53;18.20;99.90
13898;DHT22;7019;50.766;4.474;2023-07-31T15:02:20;18.10;99.90
13898;DHT22;7019;50.766;4.474;2023-07-31T15:04:47;18.10;99.90
13898;DHT22;7019;50.766;4.474;2023-07-31T15:07:14;18.10;99.90
13898;DHT22;7019;50.766;4.474;2023-07-31T15:09:41;18.00;99.90
13898;DHT22;7019;50.766;4.474;2023-07-31T15:12:10;18.00;99.90
13898;DHT22;7019;50.766;4.474;2023-07-31T15:14:37;18.00;99.90
13898;DHT22;7019;50.766;4.474;2023-07-31T15:17:04;17.90;99.90
13898;DHT22;7019;50.766;4.474;2023-07-31T15:19:31;17.90;99.90
13898;DHT22;7019;50.766;4.474;2023-07-31T15:22:00;18.00;99.90
13898;DHT22;7019;50.766;4.474;2023-07-31T15:24:28;18.00;99.90
13898;DHT22;7019;50.766;4.474;2023-07-31T15:26:55;18.00;99.90
13898;DHT22;7019;50.766;4.474;2023-07-31T15:29:23;18.00;99.90
13898;DHT22;7019;50.766;4.474;2023-07-31T15:31:51;17.90;99.90
13898;DHT22;7019;50.766;4.474;2023-07-31T15:34:18;17.90;99.90
13898;DHT22;7019;50.766;4.474;2023-07-31T15:36:46;17.90;99.90
13898;DHT22;7019;50.766;4.474;2023-07-31T15:39:14;17.80;99.90
13898;DHT22;7019;50.766;4.474;2023-07-31T15:41:41;17.80;99.90
13898;DHT22;7019;50.766;4.474;2023-07-31T15:44:08;17.80;99.90
13898;DHT22;7019;50.766;4.474;2023-07-31T15:46:37;17.90;99.90
13898;DHT22;7019;50.766;4.474;2023-07-31T15:49:04;17.80;99.90
13898;DHT22;7019;50.766;4.474;2023-07-31T15:51:32;17.70;99.90